Cosco Kaohsiung — VREM3 — position and weather

sailwx.info

Track history (hours):
 
Tides and Currents Weather Stations Pressure Air Temp Water Temp Dewpoint Dewpoint Depression Visibility Wind Speed Wind Dir Waves Ship Positions

Cosco Kaohsiung

Last reported at 2015-Feb-24 13:22 UTC. Time now 2015-Mar-01 04:32 UTC.
Position N 01°15' E 104°03'.

Length 349 m; draft 12.2 m.

Type: Ship (hazmat cat A). MMSI: 477136800.

Date/timePositionNaut miles runAvg speedWind from/ knotsBaromVisibWave heightAir tempDewpointWater temp
2015-Feb-24 13:22N 01°15' E 104°03'1214.5
2015-Feb-24 12:32N 01°12' E 103°52'8 8.3
2015-Feb-24 11:32N 01°16' E 103°45'1 1.0
2015-Feb-24 10:20N 01°17' E 103°46'0 0.0
2015-Feb-24 09:20N 01°17' E 103°46'0 0.0
2015-Feb-24 08:32N 01°17' E 103°46'0 0.0
2015-Feb-24 07:32N 01°17' E 103°46'0 0.0
2015-Feb-24 06:26N 01°17' E 103°46'0 0.0
2015-Feb-24 05:26N 01°17' E 103°46'0 0.0
2015-Feb-24 04:26N 01°17' E 103°46'0 0.0
2015-Feb-24 03:29N 01°17' E 103°46'0 0.0
2015-Feb-24 02:32N 01°17' E 103°46'0 0.0
2015-Feb-24 01:29N 01°17' E 103°46'0 0.0
2015-Feb-23 23:32N 01°17' E 103°46'0 0.0
2015-Feb-23 22:32N 01°17' E 103°46'0 0.0
2015-Feb-23 21:29N 01°17' E 103°46'0 0.0
2015-Feb-23 20:23N 01°17' E 103°46'0 0.0
2015-Feb-23 19:08N 01°17' E 103°46'0 0.0
2015-Feb-23 18:32N 01°17' E 103°46'0 0.0
2015-Feb-23 17:29N 01°17' E 103°46'0 0.0
2015-Feb-23 16:29N 01°17' E 103°46'0 0.0
2015-Feb-23 15:32N 01°17' E 103°46'1 0.9
2015-Feb-23 14:32N 01°17' E 103°45'3 3.3
2015-Feb-23 13:33N 01°15' E 103°43'6710.5
2015-Feb-23 07:15N 01°40' E 102°42'1216.8
2015-Feb-23 06:34N 01°44' E 102°31'  
Track history (hours):
 
Tides and Currents Weather Stations Pressure Air Temp Water Temp Dewpoint Dewpoint Depression Visibility Wind Speed Wind Dir Waves Ship Positions

Cosco Kaohsiung

Last reported at 2015-Feb-24 13:22 UTC. Time now 2015-Mar-01 04:32 UTC.
Position N 01°15' E 104°03'.

Length 349 m; draft 12.2 m.

Type: Ship (hazmat cat A). MMSI: 477136800.

Date/timePositionNaut miles runAvg speedWind from/ knotsBaromVisibWave heightAir tempDewpointWater temp
2015-Feb-24 13:22N 01°15' E 104°03'1214.5
2015-Feb-24 12:32N 01°12' E 103°52'8 8.3
2015-Feb-24 11:32N 01°16' E 103°45'1 1.0
2015-Feb-24 10:20N 01°17' E 103°46'0 0.0
2015-Feb-24 09:20N 01°17' E 103°46'0 0.0
2015-Feb-24 08:32N 01°17' E 103°46'0 0.0
2015-Feb-24 07:32N 01°17' E 103°46'0 0.0
2015-Feb-24 06:26N 01°17' E 103°46'0 0.0
2015-Feb-24 05:26N 01°17' E 103°46'0 0.0
2015-Feb-24 04:26N 01°17' E 103°46'0 0.0
2015-Feb-24 03:29N 01°17' E 103°46'0 0.0
2015-Feb-24 02:32N 01°17' E 103°46'0 0.0
2015-Feb-24 01:29N 01°17' E 103°46'0 0.0
2015-Feb-23 23:32N 01°17' E 103°46'0 0.0
2015-Feb-23 22:32N 01°17' E 103°46'0 0.0
2015-Feb-23 21:29N 01°17' E 103°46'0 0.0
2015-Feb-23 20:23N 01°17' E 103°46'0 0.0
2015-Feb-23 19:08N 01°17' E 103°46'0 0.0
2015-Feb-23 18:32N 01°17' E 103°46'0 0.0
2015-Feb-23 17:29N 01°17' E 103°46'0 0.0
2015-Feb-23 16:29N 01°17' E 103°46'0 0.0
2015-Feb-23 15:32N 01°17' E 103°46'1 0.9
2015-Feb-23 14:32N 01°17' E 103°45'3 3.3
2015-Feb-23 13:33N 01°15' E 103°43'6710.5
2015-Feb-23 07:15N 01°40' E 102°42'1216.8
2015-Feb-23 06:34N 01°44' E 102°31'  

Dump ship's entire track history